Time;durP1;ratioP1;P1;durP2;ratioP2;P2;SDS_P1;SDS_P2;PMS_P1;PMS_P2;Temp;Humidity;BMP_temperature;BMP_pressure;BME280_temperature;BME280_humidity;BME280_pressure;Samples;Min_cycle;Max_cycle;Signal;HPM_P1;HPM_P2
2022/12/09 00:01:06;;;;;;;22.03;12.27;;;-2.30;99.90;;;;;;4995796;28;20218;-39
2022/12/09 00:03:32;;;;;;;19.57;11.83;;;-2.20;99.90;;;;;;4995748;28;20632;-41
2022/12/09 00:05:58;;;;;;;19.00;11.77;;;-2.10;99.90;;;;;;4979310;28;20242;-41
2022/12/09 00:08:24;;;;;;;20.00;11.77;;;-2.00;99.90;;;;;;4995758;28;20203;-41
2022/12/09 00:10:50;;;;;;;18.47;11.20;;;-1.90;99.90;;;;;;4995572;28;20175;-41
2022/12/09 00:13:16;;;;;;;17.67;10.87;;;-1.90;99.90;;;;;;4995622;28;20172;-40
2022/12/09 00:15:42;;;;;;;17.57;10.60;;;-1.80;99.90;;;;;;4995399;28;20199;-40
2022/12/09 00:18:08;;;;;;;15.27;10.07;;;-1.80;99.90;;;;;;5012712;28;20190;-41
2022/12/09 00:20:35;;;;;;;17.67;10.27;;;-1.80;99.90;;;;;;4995493;28;20179;-41
2022/12/09 00:23:01;;;;;;;18.93;11.03;;;-1.80;99.90;;;;;;4995381;28;20179;-40
2022/12/09 00:25:26;;;;;;;15.73;9.93;;;-1.80;99.90;;;;;;4995111;28;20220;-38
2022/12/09 00:27:52;;;;;;;15.40;9.77;;;-1.80;99.90;;;;;;4978876;28;20299;-39
2022/12/09 00:30:18;;;;;;;17.77;9.90;;;-1.70;99.90;;;;;;4995512;28;20181;-41
2022/12/09 00:32:44;;;;;;;15.10;10.07;;;-1.70;99.90;;;;;;4994909;28;20190;-41
2022/12/09 00:35:10;;;;;;;15.43;10.27;;;-1.80;99.90;;;;;;4995000;28;20286;-40
2022/12/09 00:37:36;;;;;;;16.97;9.37;;;-1.80;99.90;;;;;;4978788;28;20266;-40
2022/12/09 00:40:03;;;;;;;16.87;10.03;;;-1.80;99.90;;;;;;4994801;28;20179;-38
2022/12/09 00:42:29;;;;;;;15.87;10.00;;;-1.80;99.90;;;;;;4995049;28;20184;-41
2022/12/09 00:44:55;;;;;;;14.80;9.57;;;-1.80;99.90;;;;;;4995005;28;20209;-39
2022/12/09 00:47:20;;;;;;;16.47;10.23;;;-1.90;99.90;;;;;;4978330;28;20223;-40
2022/12/09 00:49:46;;;;;;;14.73;9.90;;;-1.80;99.90;;;;;;4994793;28;20179;-40
2022/12/09 00:52:12;;;;;;;15.87;10.13;;;-1.80;99.90;;;;;;4994943;28;20175;-40
2022/12/09 00:54:38;;;;;;;13.60;9.30;;;-1.90;99.90;;;;;;4994441;28;20195;-41
2022/12/09 00:57:04;;;;;;;14.20;9.10;;;-1.90;99.90;;;;;;4994212;28;20187;-40
2022/12/09 00:59:30;;;;;;;17.20;9.57;;;-1.90;99.90;;;;;;5010975;28;20205;-38
2022/12/09 01:01:56;;;;;;;15.90;8.40;;;-1.90;99.90;;;;;;4994620;28;20179;-40
2022/12/09 01:04:23;;;;;;;14.63;9.13;;;-1.90;99.90;;;;;;4994611;28;20207;-36
2022/12/09 01:06:50;;;;;;;13.63;9.20;;;-2.00;99.90;;;;;;4994590;28;20214;-40
2022/12/09 01:09:16;;;;;;;13.60;8.80;;;-1.90;99.90;;;;;;4994255;28;20167;-39
2022/12/09 01:11:43;;;;;;;17.03;9.77;;;-2.00;99.90;;;;;;4993977;28;20190;-41
2022/12/09 01:14:11;;;;;;;18.03;11.33;;;-2.00;99.90;;;;;;4978409;28;20222;-37
2022/12/09 01:16:37;;;;;;;15.07;10.63;;;-2.10;99.90;;;;;;4993962;28;20189;-39
2022/12/09 01:19:06;;;;;;;20.20;11.47;;;-2.20;99.90;;;;;;4994279;28;20187;-39
2022/12/09 01:21:33;;;;;;;14.67;10.17;;;-2.30;99.90;;;;;;4994159;28;20224;-39
2022/12/09 01:23:59;;;;;;;15.53;10.37;;;-2.30;99.90;;;;;;4994033;28;20200;-39
2022/12/09 01:26:25;;;;;;;17.67;10.37;;;-2.30;99.90;;;;;;4993985;28;20207;-38
2022/12/09 01:28:55;;;;;;;14.70;9.47;;;-2.30;99.90;;;;;;4993468;28;20210;-41
2022/12/09 01:31:23;;;;;;;14.10;9.40;;;-2.30;99.90;;;;;;4994263;28;20269;-40
2022/12/09 01:33:49;;;;;;;13.90;9.43;;;-2.30;99.90;;;;;;5010503;28;20198;-39
2022/12/09 01:36:18;;;;;;;13.73;9.37;;;-2.40;99.90;;;;;;4993715;28;20216;-39
2022/12/09 01:38:45;;;;;;;14.83;9.10;;;-2.40;99.90;;;;;;4993879;28;20203;-40
2022/12/09 01:41:11;;;;;;;17.33;10.03;;;-2.40;99.90;;;;;;4977745;28;20174;-35
2022/12/09 01:43:38;;;;;;;16.00;9.87;;;-2.50;99.90;;;;;;4977565;28;20183;-36
2022/12/09 01:46:05;;;;;;;14.83;9.53;;;-2.60;99.90;;;;;;5011441;28;20205;-39
2022/12/09 01:48:37;;;;;;;16.10;10.40;;;-2.60;99.90;;;;;;5011537;28;20179;-38
2022/12/09 01:51:18;;;;;;;16.87;9.87;;;-2.60;99.90;;;;;;4993044;28;20187;-38
2022/12/09 01:53:48;;;;;;;17.20;9.23;;;-2.60;99.90;;;;;;4992805;28;20175;-40
2022/12/09 01:56:21;;;;;;;16.77;9.27;;;-2.60;99.90;;;;;;4992146;28;20266;-38
2022/12/09 01:58:48;;;;;;;14.83;9.10;;;-2.50;99.90;;;;;;4976784;28;20183;-39
2022/12/09 02:01:15;;;;;;;14.00;8.53;;;-2.60;99.90;;;;;;4992600;28;20211;-40
2022/12/09 02:03:41;;;;;;;16.67;9.40;;;-2.60;99.90;;;;;;4993515;28;20189;-40
2022/12/09 02:06:07;;;;;;;15.53;9.03;;;-2.60;99.90;;;;;;4992537;28;20199;-38
2022/12/09 02:08:33;;;;;;;14.70;8.40;;;-2.70;99.90;;;;;;4993770;28;20175;-40
2022/12/09 02:11:10;;;;;;;14.43;8.83;;;-2.70;99.90;;;;;;4977592;28;20648;-40
2022/12/09 02:13:50;;;;;;;14.50;8.37;;;-2.70;99.90;;;;;;4978347;28;20179;-37
2022/12/09 02:16:23;;;;;;;16.27;9.40;;;-2.70;99.90;;;;;;4977182;28;20262;-36
2022/12/09 02:18:48;;;;;;;15.27;9.67;;;-2.70;99.90;;;;;;4993539;28;20179;-40
2022/12/09 02:21:22;;;;;;;14.77;8.90;;;-2.80;99.90;;;;;;4993427;28;20739;-40
2022/12/09 02:24:07;;;;;;;14.30;8.83;;;-2.80;99.90;;;;;;4993719;28;20225;-38
2022/12/09 02:26:51;;;;;;;15.37;8.80;;;-2.80;99.90;;;;;;4993417;28;20301;-39
2022/12/09 02:29:45;;;;;;;13.57;8.47;;;-2.80;99.90;;;;;;4993584;28;20207;-36
2022/12/09 02:32:49;;;;;;;16.43;8.03;;;-2.70;99.90;;;;;;4993594;28;20203;-38
2022/12/09 02:35:36;;;;;;;14.57;7.87;;;-2.80;99.90;;;;;;4993320;28;20195;-38
2022/12/09 02:38:19;;;;;;;14.40;9.23;;;-2.70;99.90;;;;;;4993253;28;20201;-35
2022/12/09 02:41:13;;;;;;;16.03;9.47;;;-2.70;99.90;;;;;;4993325;28;20262;-35
2022/12/09 02:43:59;;;;;;;13.50;8.47;;;-2.80;99.90;;;;;;4993246;28;20214;-35
2022/12/09 02:46:31;;;;;;;14.00;8.63;;;-2.80;99.90;;;;;;4993137;28;20207;-34
2022/12/09 02:48:58;;;;;;;13.93;8.37;;;-2.80;99.90;;;;;;4993695;28;20636;-36
2022/12/09 02:51:29;;;;;;;12.97;8.60;;;-2.80;99.90;;;;;;4993145;28;20620;-36
2022/12/09 02:54:02;;;;;;;15.67;8.90;;;-2.80;99.90;;;;;;5010764;28;20196;-33
2022/12/09 02:56:31;;;;;;;15.13;9.37;;;-2.80;99.90;;;;;;4993195;28;20297;-38
2022/12/09 02:58:57;;;;;;;15.83;8.67;;;-2.80;99.90;;;;;;4993299;28;20186;-35
2022/12/09 03:01:28;;;;;;;14.50;9.07;;;-2.90;99.90;;;;;;5009584;28;20237;-38
2022/12/09 03:03:54;;;;;;;13.13;7.73;;;-2.90;99.90;;;;;;5014146;28;20253;-38
2022/12/09 03:06:27;;;;;;;14.73;8.97;;;-2.90;99.90;;;;;;4996526;28;20238;-37
2022/12/09 03:09:02;;;;;;;12.90;8.03;;;-2.90;99.90;;;;;;5014369;28;20226;-32
2022/12/09 03:11:31;;;;;;;13.93;8.60;;;-2.90;99.90;;;;;;4996781;28;20186;-36
2022/12/09 03:14:07;;;;;;;15.20;8.43;;;-2.80;99.90;;;;;;4996383;28;20205;-37
2022/12/09 03:16:33;;;;;;;13.63;9.00;;;-2.80;99.90;;;;;;5014096;28;20290;-35
2022/12/09 03:19:21;;;;;;;12.97;8.57;;;-2.80;99.90;;;;;;4996710;28;20317;-34
2022/12/09 03:21:50;;;;;;;14.83;8.67;;;-2.80;99.90;;;;;;4996540;28;20180;-32
2022/12/09 03:24:33;;;;;;;13.77;8.27;;;-2.80;99.90;;;;;;4996908;28;20203;-34
2022/12/09 03:27:06;;;;;;;12.63;8.53;;;-2.90;99.90;;;;;;4996408;28;20214;-36
2022/12/09 03:29:34;;;;;;;12.47;8.00;;;-2.80;99.90;;;;;;4996382;28;20175;-38
2022/12/09 03:32:00;;;;;;;13.47;8.37;;;-2.80;99.90;;;;;;4996354;28;20183;-33
2022/12/09 03:34:32;;;;;;;14.33;9.07;;;-2.80;99.90;;;;;;4996378;28;20238;-34
2022/12/09 03:37:00;;;;;;;14.93;8.60;;;-2.80;99.90;;;;;;4995993;28;20179;-33
2022/12/09 03:39:30;;;;;;;15.73;8.83;;;-2.90;99.90;;;;;;4996304;28;20333;-32
2022/12/09 03:42:00;;;;;;;14.13;8.80;;;-2.90;99.90;;;;;;4980075;28;20214;-36
2022/12/09 03:44:36;;;;;;;13.03;8.93;;;-2.90;99.90;;;;;;4996095;28;20772;-35
2022/12/09 03:47:05;;;;;;;17.73;9.50;;;-3.00;99.90;;;;;;4996078;28;20210;-37
2022/12/09 03:49:31;;;;;;;13.93;9.30;;;-2.90;99.90;;;;;;4995860;28;20180;-34
2022/12/09 03:52:10;;;;;;;14.53;9.23;;;-2.90;99.90;;;;;;4996118;28;20222;-34
2022/12/09 03:54:48;;;;;;;15.93;8.93;;;-2.90;99.90;;;;;;5013417;28;20193;-36
2022/12/09 03:57:17;;;;;;;14.27;8.33;;;-2.90;99.90;;;;;;5013479;28;20177;-34
2022/12/09 03:59:50;;;;;;;14.17;8.53;;;-3.00;99.90;;;;;;4996010;28;20199;-33
2022/12/09 04:02:16;;;;;;;20.00;10.23;;;-3.10;99.90;;;;;;5013385;28;20171;-37
2022/12/09 04:04:42;;;;;;;17.13;8.97;;;-3.20;99.90;;;;;;4995724;28;20207;-35
2022/12/09 04:07:08;;;;;;;15.30;9.30;;;-3.40;99.90;;;;;;4995247;28;20218;-36
2022/12/09 04:09:40;;;;;;;15.73;8.73;;;-3.40;99.90;;;;;;4995707;28;20556;-38
2022/12/09 04:12:06;;;;;;;16.20;9.47;;;-3.40;99.90;;;;;;4995619;28;20186;-37
2022/12/09 04:14:32;;;;;;;16.60;9.43;;;-3.30;99.90;;;;;;4973919;28;20200;-39
2022/12/09 04:16:59;;;;;;;17.23;9.27;;;-3.20;99.90;;;;;;4994702;28;20187;-38
2022/12/09 04:19:25;;;;;;;17.83;9.60;;;-3.10;99.90;;;;;;4994787;28;20215;-36
2022/12/09 04:21:50;;;;;;;16.20;9.37;;;-3.00;99.90;;;;;;4994944;28;20265;-39
2022/12/09 04:24:16;;;;;;;17.60;9.77;;;-3.00;99.90;;;;;;4994933;28;20241;-37
2022/12/09 04:26:43;;;;;;;17.10;9.77;;;-2.90;99.90;;;;;;4994733;28;20211;-39
2022/12/09 04:29:10;;;;;;;16.57;10.17;;;-2.90;99.90;;;;;;4994204;28;20175;-39
2022/12/09 04:31:36;;;;;;;15.73;10.07;;;-2.80;99.90;;;;;;4995312;28;20179;-39
2022/12/09 04:34:02;;;;;;;16.87;9.77;;;-2.90;99.90;;;;;;4994937;28;20214;-39
2022/12/09 04:36:28;;;;;;;15.73;9.77;;;-3.00;99.90;;;;;;5012487;28;20179;-36
2022/12/09 04:38:54;;;;;;;15.83;9.77;;;-3.00;99.90;;;;;;5010965;28;20183;-40
2022/12/09 04:41:20;;;;;;;13.57;8.97;;;-3.00;99.90;;;;;;5011265;28;20175;-40
2022/12/09 04:43:45;;;;;;;17.50;9.30;;;-3.00;99.90;;;;;;4984147;28;20191;-36
2022/12/09 04:46:13;;;;;;;13.77;8.50;;;-2.90;99.90;;;;;;4992685;28;20242;-40
2022/12/09 04:48:40;;;;;;;13.77;8.97;;;-2.90;99.90;;;;;;4994434;28;20187;-39
2022/12/09 04:51:11;;;;;;;14.07;8.10;;;-2.90;99.90;;;;;;4994712;28;20187;-38
2022/12/09 04:53:38;;;;;;;15.50;9.63;;;-2.90;99.90;;;;;;4973250;28;20187;-39
2022/12/09 04:56:07;;;;;;;16.23;8.73;;;-2.90;99.90;;;;;;4985184;28;20180;-37
2022/12/09 04:58:33;;;;;;;12.30;8.53;;;-2.90;99.90;;;;;;4992767;28;20214;-37
2022/12/09 05:01:07;;;;;;;17.03;8.37;;;-2.80;99.90;;;;;;4994122;28;20175;-39
2022/12/09 05:03:34;;;;;;;14.07;8.53;;;-2.80;99.90;;;;;;4993773;28;20182;-38
2022/12/09 05:06:06;;;;;;;14.37;8.00;;;-2.80;99.90;;;;;;4993268;28;20294;-40
2022/12/09 05:08:32;;;;;;;14.50;8.03;;;-2.80;99.90;;;;;;4994216;28;20183;-38
2022/12/09 05:10:58;;;;;;;15.07;9.00;;;-2.80;99.90;;;;;;4965606;28;20183;-38
2022/12/09 05:13:26;;;;;;;14.10;9.70;;;-2.70;99.90;;;;;;4990073;28;20262;-39
2022/12/09 05:15:53;;;;;;;15.47;9.13;;;-2.80;99.90;;;;;;4996320;28;20207;-38
2022/12/09 05:18:19;;;;;;;15.63;8.53;;;-2.70;99.90;;;;;;4990540;28;20215;-40
2022/12/09 05:20:45;;;;;;;11.70;8.53;;;-2.70;99.90;;;;;;4992238;28;20183;-35
2022/12/09 05:23:11;;;;;;;12.83;8.80;;;-2.70;99.90;;;;;;4992443;28;20211;-38
2022/12/09 05:25:37;;;;;;;12.80;8.20;;;-2.60;99.90;;;;;;4992744;28;20211;-39
2022/12/09 05:28:03;;;;;;;14.53;8.53;;;-2.60;99.90;;;;;;4992275;28;20207;-39
2022/12/09 05:30:29;;;;;;;15.33;9.10;;;-2.60;99.90;;;;;;4993158;28;20206;-38
2022/12/09 05:32:55;;;;;;;14.47;9.13;;;-2.60;99.90;;;;;;4993826;28;20183;-40
2022/12/09 05:35:21;;;;;;;14.90;9.10;;;-2.60;99.90;;;;;;5011084;28;20192;-35
2022/12/09 05:37:46;;;;;;;14.20;9.67;;;-2.60;99.90;;;;;;5010957;28;20217;-36
2022/12/09 05:40:12;;;;;;;14.63;9.27;;;-2.60;99.90;;;;;;4984248;28;20610;-39
2022/12/09 05:42:38;;;;;;;15.70;9.90;;;-2.70;99.90;;;;;;4993595;28;20266;-40
2022/12/09 05:45:04;;;;;;;21.80;13.07;;;-2.60;99.90;;;;;;4993455;28;20203;-38
2022/12/09 05:47:30;;;;;;;17.73;10.73;;;-2.60;99.90;;;;;;4993165;28;20294;-37
2022/12/09 05:49:56;;;;;;;16.33;10.33;;;-2.60;99.90;;;;;;4993982;28;20278;-36
2022/12/09 05:52:22;;;;;;;14.10;9.17;;;-2.60;99.90;;;;;;5009806;28;20678;-40
2022/12/09 05:54:49;;;;;;;15.37;9.30;;;-2.60;99.90;;;;;;5009486;28;20205;-38
2022/12/09 05:57:15;;;;;;;16.90;11.23;;;-2.60;99.90;;;;;;4993325;28;20175;-39
2022/12/09 05:59:41;;;;;;;16.53;10.67;;;-2.50;99.90;;;;;;5010906;28;20175;-40
2022/12/09 06:02:06;;;;;;;20.10;10.67;;;-2.50;99.90;;;;;;5008166;28;20245;-40
2022/12/09 06:04:32;;;;;;;17.30;10.50;;;-2.60;99.90;;;;;;5009784;28;20209;-36
2022/12/09 06:06:58;;;;;;;18.43;10.57;;;-2.60;99.90;;;;;;4992496;28;20207;-38
2022/12/09 06:09:25;;;;;;;18.30;11.00;;;-2.60;99.90;;;;;;4976994;28;20187;-37
2022/12/09 06:11:51;;;;;;;21.87;11.77;;;-2.60;99.90;;;;;;4977573;28;20186;-38
2022/12/09 06:14:17;;;;;;;17.63;10.03;;;-2.60;99.90;;;;;;5010826;28;20203;-39
2022/12/09 06:16:43;;;;;;;16.90;10.27;;;-2.60;99.90;;;;;;5009804;28;20190;-37
2022/12/09 06:19:10;;;;;;;13.93;9.57;;;-2.60;99.90;;;;;;4993315;28;20233;-39
2022/12/09 06:21:40;;;;;;;14.53;9.13;;;-2.60;99.90;;;;;;4993121;28;20183;-38
2022/12/09 06:24:07;;;;;;;15.77;10.27;;;-2.60;99.90;;;;;;5008041;28;20278;-40
2022/12/09 06:26:33;;;;;;;23.13;11.53;;;-2.70;99.90;;;;;;4977047;28;20250;-39
2022/12/09 06:28:59;;;;;;;19.17;10.20;;;-2.60;99.90;;;;;;5009581;28;20179;-38
2022/12/09 06:31:26;;;;;;;17.33;9.77;;;-2.60;99.90;;;;;;4966517;28;20222;-38
2022/12/09 06:33:53;;;;;;;15.43;10.13;;;-2.50;99.90;;;;;;4993210;28;20205;-39
2022/12/09 06:36:19;;;;;;;17.53;10.87;;;-2.40;99.90;;;;;;4993001;28;20191;-39
2022/12/09 06:38:44;;;;;;;19.23;12.07;;;-2.40;99.90;;;;;;4982411;28;20187;-40
2022/12/09 06:41:12;;;;;;;20.40;14.77;;;-2.40;99.90;;;;;;4983174;28;20179;-39
2022/12/09 06:43:39;;;;;;;19.67;13.87;;;-2.40;99.90;;;;;;4982629;28;20219;-40
2022/12/09 06:46:19;;;;;;;22.70;15.03;;;-2.30;99.90;;;;;;4980521;28;20180;-40
2022/12/09 06:48:46;;;;;;;27.30;15.67;;;-2.30;99.90;;;;;;5012802;28;20185;-38
2022/12/09 06:51:12;;;;;;;21.43;12.20;;;-2.20;99.90;;;;;;4980795;28;20178;-39
2022/12/09 06:53:38;;;;;;;19.47;12.00;;;-2.20;99.90;;;;;;4980437;28;20180;-39
2022/12/09 06:56:06;;;;;;;17.27;11.13;;;-2.20;99.90;;;;;;4996650;28;20179;-37
2022/12/09 06:58:32;;;;;;;19.33;11.83;;;-2.10;99.90;;;;;;4996639;28;20593;-37
2022/12/09 07:01:07;;;;;;;16.83;11.17;;;-2.10;99.90;;;;;;5013294;28;20214;-39
2022/12/09 07:03:33;;;;;;;18.73;10.60;;;-2.10;99.90;;;;;;4996343;28;20183;-39
2022/12/09 07:06:01;;;;;;;16.00;10.47;;;-2.10;99.90;;;;;;5013993;28;20175;-39
2022/12/09 07:08:28;;;;;;;16.27;11.00;;;-2.10;99.90;;;;;;4996214;28;20175;-38
2022/12/09 07:10:54;;;;;;;18.60;10.27;;;-2.00;99.90;;;;;;4995508;28;20183;-39
2022/12/09 07:13:22;;;;;;;15.37;10.53;;;-2.00;99.90;;;;;;5014292;28;20183;-35
2022/12/09 07:15:48;;;;;;;16.90;11.03;;;-2.00;99.90;;;;;;4996482;28;20253;-38
2022/12/09 07:18:15;;;;;;;19.07;11.03;;;-2.00;99.90;;;;;;4995451;28;20176;-37
2022/12/09 07:20:41;;;;;;;17.53;10.73;;;-2.00;99.90;;;;;;5001945;28;20263;-40
2022/12/09 07:23:08;;;;;;;19.20;10.83;;;-1.90;99.90;;;;;;4995678;28;20218;-39
2022/12/09 07:25:35;;;;;;;14.90;10.37;;;-1.90;99.90;;;;;;4985913;28;20254;-40
2022/12/09 07:28:02;;;;;;;16.37;10.97;;;-1.90;99.90;;;;;;4995542;28;20211;-38
2022/12/09 07:30:30;;;;;;;17.60;11.20;;;-1.80;99.90;;;;;;4994585;28;20206;-36
2022/12/09 07:32:56;;;;;;;16.30;10.73;;;-1.80;99.90;;;;;;4996235;28;20217;-38
2022/12/09 07:35:22;;;;;;;13.50;9.93;;;-1.80;99.90;;;;;;4995222;28;20269;-39
2022/12/09 07:37:48;;;;;;;15.57;10.30;;;-1.70;99.90;;;;;;4979194;28;20190;-38
2022/12/09 07:40:14;;;;;;;15.80;10.47;;;-1.70;99.90;;;;;;4979375;28;20214;-40
2022/12/09 07:42:40;;;;;;;16.60;10.80;;;-1.70;99.90;;;;;;4996408;28;20210;-39
2022/12/09 07:45:08;;;;;;;15.53;10.17;;;-1.70;99.90;;;;;;4995003;28;20317;-40
2022/12/09 07:47:34;;;;;;;16.70;9.73;;;-1.70;99.90;;;;;;4995517;28;20282;-37
2022/12/09 07:50:00;;;;;;;18.00;10.77;;;-1.60;99.90;;;;;;5011194;28;20306;-40
2022/12/09 07:52:26;;;;;;;15.97;10.40;;;-1.60;99.90;;;;;;4995908;28;20258;-40
2022/12/09 07:54:53;;;;;;;15.77;10.27;;;-1.50;99.90;;;;;;5012783;28;20314;-40
2022/12/09 07:57:22;;;;;;;17.47;11.30;;;-1.50;99.90;;;;;;5011898;28;20221;-40
2022/12/09 07:59:47;;;;;;;17.73;11.20;;;-1.50;99.90;;;;;;4995819;28;20184;-40
2022/12/09 08:02:13;;;;;;;15.50;11.47;;;-1.50;99.90;;;;;;4979440;28;20191;-39
2022/12/09 08:04:39;;;;;;;16.30;11.23;;;-1.50;99.90;;;;;;4979306;28;20203;-41
2022/12/09 08:07:05;;;;;;;17.80;11.47;;;-1.50;99.90;;;;;;4979361;28;20318;-40
2022/12/09 08:09:31;;;;;;;18.90;11.40;;;-1.50;99.90;;;;;;4995796;28;20203;-41
2022/12/09 08:11:56;;;;;;;17.60;11.80;;;-1.50;99.90;;;;;;5013201;28;20251;-40
2022/12/09 08:14:22;;;;;;;17.97;11.40;;;-1.40;99.90;;;;;;4995504;28;20207;-40
2022/12/09 08:16:48;;;;;;;22.87;13.63;;;-1.40;99.90;;;;;;4995381;28;20187;-38
2022/12/09 08:19:14;;;;;;;17.27;13.00;;;-1.30;99.90;;;;;;4995335;28;20192;-39
2022/12/09 08:21:41;;;;;;;21.37;14.63;;;-1.30;99.90;;;;;;5007888;28;20202;-40
2022/12/09 08:24:09;;;;;;;24.70;15.13;;;-1.20;99.90;;;;;;5012928;28;20230;-40
2022/12/09 08:26:37;;;;;;;24.53;15.00;;;-1.20;99.90;;;;;;4994930;28;20254;-40
2022/12/09 08:29:09;;;;;;;21.67;14.67;;;-1.20;99.90;;;;;;4995295;28;20211;-39
2022/12/09 08:31:35;;;;;;;20.20;12.63;;;-1.10;99.90;;;;;;5011672;28;20218;-41
2022/12/09 08:34:04;;;;;;;21.57;14.53;;;-1.10;99.90;;;;;;5011404;28;20199;-40
2022/12/09 08:36:31;;;;;;;20.77;14.93;;;-1.10;99.90;;;;;;4995104;28;20333;-39
2022/12/09 08:39:01;;;;;;;20.70;13.53;;;-1.10;99.90;;;;;;5011617;28;20183;-40
2022/12/09 08:41:33;;;;;;;24.37;15.50;;;-1.10;99.90;;;;;;5011163;28;20186;-40
2022/12/09 08:44:10;;;;;;;23.27;14.37;;;-1.00;99.90;;;;;;4994931;28;20208;-40
2022/12/09 08:46:37;;;;;;;45.17;22.77;;;-1.00;99.90;;;;;;4994623;28;20222;-40
2022/12/09 08:49:04;;;;;;;23.27;13.00;;;-1.00;99.90;;;;;;4995031;28;20190;-40
2022/12/09 08:51:31;;;;;;;16.87;11.80;;;-0.90;99.90;;;;;;4994950;28;20203;-40
2022/12/09 08:53:58;;;;;;;16.33;11.23;;;-0.90;99.90;;;;;;4994585;28;20286;-41
2022/12/09 08:56:24;;;;;;;17.57;11.90;;;-0.80;99.90;;;;;;4994381;28;20179;-40
2022/12/09 08:58:50;;;;;;;17.17;10.47;;;-0.80;99.90;;;;;;4994645;28;20287;-41
2022/12/09 09:01:21;;;;;;;15.23;11.27;;;-0.80;99.90;;;;;;4994412;28;20214;-40
2022/12/09 09:03:49;;;;;;;19.20;11.97;;;-0.80;99.90;;;;;;4994693;28;20187;-40
2022/12/09 09:06:16;;;;;;;17.40;10.73;;;-0.80;99.90;;;;;;4994284;28;20279;-40
2022/12/09 09:08:42;;;;;;;15.87;11.13;;;-0.70;99.90;;;;;;4978616;28;20187;-40
2022/12/09 09:11:17;;;;;;;16.07;10.97;;;-0.70;99.90;;;;;;4994620;28;20175;-41
2022/12/09 09:13:45;;;;;;;17.93;11.80;;;-0.70;99.90;;;;;;4994407;28;20271;-41
2022/12/09 09:16:13;;;;;;;17.70;12.27;;;-0.70;99.90;;;;;;4994388;28;20176;-41
2022/12/09 09:18:39;;;;;;;20.70;12.13;;;-0.60;99.90;;;;;;4994475;28;20192;-40
2022/12/09 09:21:07;;;;;;;19.23;12.33;;;-0.60;99.90;;;;;;4994228;28;20250;-40
2022/12/09 09:23:32;;;;;;;17.33;11.50;;;-0.50;99.90;;;;;;4994288;28;20172;-40
2022/12/09 09:25:58;;;;;;;19.80;11.23;;;-0.50;99.90;;;;;;4994368;28;20286;-40
2022/12/09 09:28:24;;;;;;;14.70;10.47;;;-0.40;99.90;;;;;;4994312;28;20175;-40
2022/12/09 09:31:05;;;;;;;18.70;10.60;;;-0.40;99.90;;;;;;4994250;28;20652;-39
2022/12/09 09:33:31;;;;;;;18.77;12.33;;;-0.30;99.90;;;;;;4993960;28;20180;-40
2022/12/09 09:35:58;;;;;;;19.43;11.83;;;-0.30;99.90;;;;;;4993754;28;20233;-41
2022/12/09 09:38:25;;;;;;;20.87;12.03;;;-0.20;99.90;;;;;;4993821;28;20182;-40
2022/12/09 09:40:51;;;;;;;20.03;13.40;;;-0.10;99.90;;;;;;5011738;28;20541;-40
2022/12/09 09:43:21;;;;;;;20.23;13.17;;;-0.10;99.90;;;;;;4994123;28;20184;-40
2022/12/09 09:45:48;;;;;;;21.57;14.27;;;0.00;99.90;;;;;;5009913;28;20212;-40
2022/12/09 09:48:18;;;;;;;20.93;13.53;;;0.00;99.90;;;;;;4993609;28;20243;-41
2022/12/09 09:50:50;;;;;;;18.13;12.77;;;0.10;99.90;;;;;;4993972;28;20184;-41
2022/12/09 09:53:26;;;;;;;19.20;13.10;;;0.10;99.90;;;;;;4993630;28;20207;-41
2022/12/09 09:55:59;;;;;;;23.23;13.90;;;0.10;99.90;;;;;;4993540;28;20196;-40
2022/12/09 09:58:41;;;;;;;16.37;11.87;;;0.10;99.90;;;;;;4993569;28;20185;-41
2022/12/09 10:01:11;;;;;;;18.40;12.23;;;0.10;99.90;;;;;;4993803;28;20184;-41
2022/12/09 10:03:52;;;;;;;19.57;12.37;;;0.10;99.90;;;;;;4993759;28;20714;-41
2022/12/09 10:06:34;;;;;;;28.07;15.67;;;0.10;99.90;;;;;;4993452;28;20279;-41
2022/12/09 10:09:21;;;;;;;18.17;12.73;;;0.20;99.90;;;;;;4977706;28;20179;-40
2022/12/09 10:12:13;;;;;;;33.10;18.10;;;0.20;99.90;;;;;;4992853;28;20210;-40
2022/12/09 10:14:58;;;;;;;27.23;14.13;;;0.20;99.90;;;;;;4993648;28;20281;-41
2022/12/09 10:17:33;;;;;;;24.10;13.70;;;0.30;99.90;;;;;;4977129;28;20616;-40
2022/12/09 10:20:10;;;;;;;28.67;14.93;;;0.30;99.90;;;;;;4993512;28;20255;-39
2022/12/09 10:22:59;;;;;;;20.27;11.90;;;0.30;99.90;;;;;;5010178;28;20194;-41
2022/12/09 10:25:31;;;;;;;19.90;12.27;;;0.30;99.90;;;;;;4998307;28;20227;-41
2022/12/09 10:28:29;;;;;;;15.70;10.13;;;0.40;99.90;;;;;;4993534;28;20275;-41
2022/12/09 10:30:56;;;;;;;29.13;16.27;;;0.30;99.90;;;;;;4978492;28;20196;-41
2022/12/09 10:33:31;;;;;;;28.53;15.20;;;0.30;99.90;;;;;;4977356;28;20188;-41
2022/12/09 10:35:57;;;;;;;17.30;11.20;;;0.30;99.90;;;;;;4993014;28;20180;-40
2022/12/09 10:38:24;;;;;;;19.90;13.00;;;0.30;99.90;;;;;;4993646;28;20181;-41
2022/12/09 10:41:00;;;;;;;20.80;11.50;;;0.30;99.90;;;;;;4993628;28;20297;-42
2022/12/09 10:43:33;;;;;;;18.57;11.47;;;0.40;99.90;;;;;;4977113;28;20635;-41
2022/12/09 10:46:01;;;;;;;28.40;14.63;;;0.40;99.90;;;;;;4993287;28;20208;-41
2022/12/09 10:48:33;;;;;;;18.90;11.67;;;0.40;99.90;;;;;;4993093;28;20189;-41
2022/12/09 10:51:03;;;;;;;19.03;11.13;;;0.40;99.90;;;;;;4991542;28;20177;-41
2022/12/09 10:53:30;;;;;;;17.90;11.13;;;0.40;99.90;;;;;;4976925;28;20275;-40
2022/12/09 10:55:59;;;;;;;17.33;10.47;;;0.50;99.90;;;;;;5008700;28;20220;-40
2022/12/09 10:58:28;;;;;;;19.60;10.83;;;0.50;99.90;;;;;;4992495;28;20208;-41
2022/12/09 11:01:01;;;;;;;16.67;10.93;;;0.50;99.90;;;;;;4993087;28;20217;-39
2022/12/09 11:03:53;;;;;;;17.63;10.73;;;0.50;99.90;;;;;;4993003;28;20181;-41
2022/12/09 11:06:21;;;;;;;14.53;10.47;;;0.50;99.90;;;;;;4987712;28;20187;-41
2022/12/09 11:08:55;;;;;;;16.30;11.00;;;0.60;99.90;;;;;;4993102;28;20185;-41
2022/12/09 11:11:48;;;;;;;16.97;12.40;;;0.60;99.90;;;;;;4992987;28;20184;-41
2022/12/09 11:14:37;;;;;;;15.97;10.60;;;0.60;99.90;;;;;;4992816;28;20249;-39
2022/12/09 11:17:31;;;;;;;18.13;10.93;;;0.60;99.90;;;;;;4992884;28;20186;-41
2022/12/09 11:20:15;;;;;;;15.00;10.53;;;0.60;99.90;;;;;;4990664;28;20220;-40
2022/12/09 11:22:43;;;;;;;18.90;11.10;;;0.60;99.90;;;;;;4976662;28;20181;-41
2022/12/09 11:25:26;;;;;;;16.50;11.57;;;0.60;99.90;;;;;;4978797;28;20241;-35
2022/12/09 11:27:58;;;;;;;14.37;10.97;;;0.60;99.90;;;;;;4996083;28;20320;-41
2022/12/09 11:30:30;;;;;;;14.90;10.43;;;0.60;99.90;;;;;;4980192;28;20182;-37
2022/12/09 11:33:14;;;;;;;16.47;11.33;;;0.60;99.90;;;;;;5012742;28;20248;-41
2022/12/09 11:35:43;;;;;;;20.80;13.00;;;0.60;99.90;;;;;;5013792;28;20247;-41
2022/12/09 11:38:41;;;;;;;25.43;15.17;;;0.60;99.90;;;;;;5014158;28;20260;-41
2022/12/09 11:44:25;;;;;;;16.13;11.17;;;0.70;99.90;;;;;;4996064;28;20213;-41
2022/12/09 11:47:11;;;;;;;17.00;11.77;;;0.60;99.90;;;;;;4995392;28;20705;-40
2022/12/09 11:49:49;;;;;;;16.60;11.87;;;0.60;99.90;;;;;;4995858;28;20180;-40
2022/12/09 11:52:18;;;;;;;20.20;12.00;;;0.60;99.90;;;;;;4996168;28;20188;-42
2022/12/09 11:55:06;;;;;;;19.60;12.63;;;0.60;99.90;;;;;;4979703;28;20202;-40
2022/12/09 11:57:57;;;;;;;19.60;11.93;;;0.60;99.90;;;;;;4995624;28;20192;-41
2022/12/09 12:00:26;;;;;;;17.17;11.70;;;0.70;99.90;;;;;;4995944;28;20225;-41
2022/12/09 12:03:25;;;;;;;18.40;11.40;;;0.70;99.90;;;;;;5013486;28;20257;-40
2022/12/09 12:05:54;;;;;;;19.27;12.03;;;0.70;99.90;;;;;;4995547;28;20209;-41
2022/12/09 12:08:54;;;;;;;19.50;11.67;;;0.70;99.90;;;;;;5013255;28;20210;-39
2022/12/09 12:11:27;;;;;;;15.27;9.87;;;0.70;99.90;;;;;;4911108;28;20301;-42
2022/12/09 12:14:01;;;;;;;17.00;11.17;;;0.70;99.90;;;;;;4995402;28;20201;-41
2022/12/09 12:16:36;;;;;;;15.40;10.67;;;0.70;99.90;;;;;;4995415;28;20184;-41
2022/12/09 12:19:23;;;;;;;14.53;9.83;;;0.70;99.90;;;;;;4995371;28;20280;-42
2022/12/09 12:22:06;;;;;;;16.27;11.20;;;0.70;99.90;;;;;;4995608;28;20218;-41
2022/12/09 12:25:03;;;;;;;16.53;11.83;;;0.70;99.90;;;;;;5012750;28;20197;-41
2022/12/09 12:28:10;;;;;;;19.13;12.07;;;0.80;99.90;;;;;;4979094;28;20214;-42
2022/12/09 12:30:53;;;;;;;17.93;11.80;;;0.80;99.90;;;;;;4968945;28;20190;-41
2022/12/09 12:33:37;;;;;;;21.83;11.50;;;0.80;99.90;;;;;;4978955;28;20180;-41
2022/12/09 12:36:57;;;;;;;15.63;10.70;;;0.70;99.90;;;;;;4978332;28;20198;-42
2022/12/09 12:39:42;;;;;;;21.10;13.80;;;0.80;99.90;;;;;;4932822;29;20300;-41
2022/12/09 12:42:15;;;;;;;17.10;12.33;;;0.70;99.90;;;;;;5012706;28;20171;-40
2022/12/09 12:47:59;;;;;;;18.13;11.27;;;0.70;99.90;;;;;;5012142;28;20229;-41
2022/12/09 12:50:31;;;;;;;17.23;11.33;;;0.80;99.90;;;;;;4978629;28;20181;-41
2022/12/09 12:53:12;;;;;;;19.63;11.30;;;0.70;99.90;;;;;;4978636;28;20182;-40
2022/12/09 12:55:50;;;;;;;16.70;11.33;;;0.80;99.90;;;;;;4978409;28;20281;-42
2022/12/09 12:58:19;;;;;;;18.43;11.90;;;0.70;99.90;;;;;;5012401;28;20172;-39